Time;durP1;ratioP1;P1;durP2;ratioP2;P2;SDS_P1;SDS_P2;PMS_P1;PMS_P2;Temp;Humidity;BMP_temperature;BMP_pressure;BME280_temperature;BME280_humidity;BME280_pressure;Samples;Min_cycle;Max_cycle;Signal;HPM_P1;HPM_P2
2022/01/28 00:01:08;;;;;;;47.65;19.05;;;5.10;99.90;;;;;;6067108;23;20079;-67
2022/01/28 00:03:39;;;;;;;47.38;18.02;;;5.20;99.90;;;;;;6067232;23;20088;-68
2022/01/28 00:06:08;;;;;;;45.97;19.20;;;5.20;99.90;;;;;;6067045;23;20123;-68
2022/01/28 00:08:35;;;;;;;54.83;19.55;;;5.20;99.90;;;;;;6067719;23;20050;-67
2022/01/28 00:11:01;;;;;;;47.25;19.02;;;5.20;99.90;;;;;;6067169;23;20013;-68
2022/01/28 00:13:35;;;;;;;59.33;19.83;;;5.20;99.90;;;;;;6067137;23;20015;-68
2022/01/28 00:16:46;;;;;;;49.90;19.13;;;5.20;99.90;;;;;;6067162;23;20120;-67
2022/01/28 00:19:05;;;;;;;55.50;19.98;;;5.10;99.90;;;;;;6065247;23;20037;-67
2022/01/28 00:38:10;;;;;;;50.47;18.38;;;5.00;99.90;;;;;;6160242;23;20009;-72
2022/01/28 00:40:37;;;;;;;55.92;20.70;;;4.80;99.90;;;;;;6186712;23;20009;-72
2022/01/28 00:43:06;;;;;;;53.42;19.70;;;4.80;99.90;;;;;;6186760;23;19997;-72
2022/01/28 00:45:33;;;;;;;54.72;20.10;;;4.70;99.90;;;;;;6160422;23;20017;-72
2022/01/28 00:48:00;;;;;;;51.83;19.90;;;4.70;99.90;;;;;;6186876;23;20013;-72
2022/01/28 00:50:29;;;;;;;45.83;19.50;;;4.60;99.90;;;;;;6186450;23;20469;-72
2022/01/28 00:52:57;;;;;;;54.10;19.92;;;4.50;99.90;;;;;;6186435;23;20009;-72
2022/01/28 00:55:23;;;;;;;51.10;19.10;;;4.50;99.90;;;;;;6186324;23;20005;-72
2022/01/28 00:57:50;;;;;;;53.17;21.20;;;4.50;99.90;;;;;;6186598;23;20009;-72
2022/01/28 01:00:17;;;;;;;56.53;21.20;;;4.50;99.90;;;;;;6186963;23;20064;-72
2022/01/28 01:02:44;;;;;;;50.78;19.80;;;4.40;99.90;;;;;;6186809;23;20076;-72
2022/01/28 01:05:11;;;;;;;63.55;20.52;;;4.40;99.90;;;;;;6186438;23;20005;-72
2022/01/28 01:07:39;;;;;;;50.90;19.13;;;4.40;99.90;;;;;;6160235;23;20331;-72
2022/01/28 01:10:07;;;;;;;58.10;20.52;;;4.40;99.90;;;;;;6186385;23;20047;-72
2022/01/28 01:12:40;;;;;;;52.40;20.48;;;4.40;99.90;;;;;;6186379;23;20001;-72
2022/01/28 01:15:08;;;;;;;47.38;18.30;;;4.40;99.90;;;;;;6187009;23;20071;-72
2022/01/28 01:17:38;;;;;;;52.53;19.65;;;4.50;99.90;;;;;;6186291;23;20330;-72
2022/01/28 01:20:32;;;;;;;53.38;19.98;;;4.50;99.90;;;;;;6186661;23;20052;-72
2022/01/28 01:23:14;;;;;;;47.97;18.42;;;4.50;99.90;;;;;;6186121;23;20009;-72
2022/01/28 01:25:51;;;;;;;59.47;19.42;;;4.60;99.90;;;;;;6185855;23;20088;-72
2022/01/28 01:28:21;;;;;;;48.83;19.10;;;4.60;99.90;;;;;;6186211;23;20099;-72
2022/01/28 01:30:48;;;;;;;46.60;17.83;;;4.50;99.90;;;;;;6185927;23;20084;-72
2022/01/28 01:33:18;;;;;;;53.72;18.27;;;4.50;99.90;;;;;;6186172;23;20047;-72
2022/01/28 01:35:47;;;;;;;43.83;16.92;;;4.50;99.90;;;;;;6186373;23;20085;-72
2022/01/28 01:38:14;;;;;;;45.50;18.73;;;4.50;99.90;;;;;;6186055;23;20076;-72
2022/01/28 01:41:04;;;;;;;52.03;18.05;;;4.50;99.90;;;;;;6186112;23;20032;-72
2022/01/28 01:53:55;;;;;;;55.63;18.38;;;4.20;99.90;;;;;;6186109;23;20005;-71
2022/01/28 01:56:22;;;;;;;48.88;18.88;;;4.10;99.90;;;;;;6186389;23;20072;-72
2022/01/28 01:58:49;;;;;;;55.47;19.95;;;4.10;99.90;;;;;;6185830;23;20011;-72
2022/01/28 02:01:16;;;;;;;52.67;19.33;;;4.00;99.90;;;;;;6185811;23;20012;-72
2022/01/28 02:03:43;;;;;;;49.58;18.52;;;4.00;99.90;;;;;;6185774;23;20013;-72
2022/01/28 02:06:10;;;;;;;50.88;19.05;;;4.00;99.90;;;;;;6185758;23;20013;-72
2022/01/28 02:08:38;;;;;;;52.38;18.67;;;3.90;99.90;;;;;;6185814;23;20490;-72
2022/01/28 02:11:05;;;;;;;54.30;18.23;;;3.90;99.90;;;;;;6185741;23;20012;-72
2022/01/28 02:13:37;;;;;;;59.53;19.63;;;3.80;99.90;;;;;;6185736;23;20005;-72
2022/01/28 02:16:06;;;;;;;53.47;19.40;;;3.80;99.90;;;;;;6185760;23;20007;-72
2022/01/28 02:18:33;;;;;;;54.78;19.77;;;3.80;99.90;;;;;;6185710;23;20415;-72
2022/01/28 02:21:06;;;;;;;63.45;21.05;;;3.80;99.90;;;;;;6186123;23;20008;-72
2022/01/28 02:23:34;;;;;;;;;;;3.70;99.90;;;;;;6186005;23;20004;-72
2022/01/28 02:26:02;;;;;;;60.70;21.08;;;3.70;99.90;;;;;;6185693;23;20250;-73
2022/01/28 02:28:35;;;;;;;62.25;22.15;;;3.70;99.90;;;;;;6185581;23;20032;-72
2022/01/28 02:31:06;;;;;;;49.13;18.23;;;3.70;99.90;;;;;;6130329;23;20021;-72
2022/01/28 02:33:33;;;;;;;57.30;20.63;;;3.70;99.90;;;;;;6155983;23;20442;-72
2022/01/28 02:36:05;;;;;;;51.60;20.05;;;3.70;99.90;;;;;;6155851;23;20080;-72
2022/01/28 02:38:34;;;;;;;53.03;20.60;;;3.70;99.90;;;;;;6156283;23;20051;-72
2022/01/28 02:41:02;;;;;;;59.50;22.30;;;3.60;99.90;;;;;;6155966;23;20424;-72
2022/01/28 02:43:44;;;;;;;52.55;19.67;;;3.60;99.90;;;;;;6129921;23;20029;-72
2022/01/28 02:46:17;;;;;;;55.38;19.73;;;3.50;99.90;;;;;;6155857;23;20052;-72
2022/01/28 02:49:01;;;;;;;52.38;20.40;;;3.50;99.90;;;;;;6129522;23;20372;-72
2022/01/28 02:51:28;;;;;;;;;;;3.50;99.90;;;;;;6156172;23;20020;-72
2022/01/28 02:53:58;;;;;;;53.90;18.40;;;3.50;99.90;;;;;;6155810;23;19905;-72
2022/01/28 02:56:40;;;;;;;55.17;19.63;;;3.50;99.90;;;;;;6156275;23;20032;-72
2022/01/28 02:59:07;;;;;;;58.05;18.80;;;3.60;99.90;;;;;;6156218;23;20013;-72
2022/01/28 03:01:34;;;;;;;53.88;20.70;;;3.60;99.90;;;;;;6155876;23;20001;-72
2022/01/28 03:04:03;;;;;;;62.38;19.75;;;3.70;99.90;;;;;;6155877;23;20013;-72
2022/01/28 03:06:30;;;;;;;55.10;17.50;;;3.70;99.90;;;;;;6155723;23;20371;-72
2022/01/28 03:08:59;;;;;;;53.22;18.00;;;3.80;99.90;;;;;;6155851;23;20379;-72
2022/01/28 03:11:44;;;;;;;47.90;17.45;;;3.80;99.90;;;;;;6129488;23;20009;-72
2022/01/28 03:15:01;;;;;;;49.08;18.77;;;3.80;99.90;;;;;;6155824;23;20525;-72
2022/01/28 03:19:44;;;;;;;57.45;19.02;;;3.70;99.90;;;;;;6156567;23;20012;-72
2022/01/28 03:22:11;;;;;;;51.15;19.65;;;3.70;99.90;;;;;;6131599;23;20009;-72
2022/01/28 03:24:40;;;;;;;44.33;17.50;;;3.60;99.90;;;;;;6157867;23;20443;-72
2022/01/28 03:27:14;;;;;;;61.05;19.17;;;3.50;99.90;;;;;;6157848;23;20013;-72
2022/01/28 03:29:40;;;;;;;48.67;17.80;;;3.50;99.90;;;;;;6144968;23;20059;-72
2022/01/28 03:32:07;;;;;;;51.92;19.00;;;3.40;99.90;;;;;;6187240;23;20009;-72
2022/01/28 03:34:34;;;;;;;52.92;18.52;;;3.30;99.90;;;;;;6187623;23;20028;-72
2022/01/28 03:37:01;;;;;;;51.63;19.50;;;3.20;99.90;;;;;;6187226;23;20084;-71
2022/01/28 03:39:27;;;;;;;58.63;19.95;;;3.20;99.90;;;;;;6188596;23;20008;-71
2022/01/28 03:41:54;;;;;;;52.72;20.65;;;3.20;99.90;;;;;;6187013;23;20443;-71
2022/01/28 03:44:20;;;;;;;56.05;19.85;;;3.10;99.90;;;;;;6187232;23;19994;-71
2022/01/28 03:46:47;;;;;;;46.55;19.30;;;3.10;99.90;;;;;;6187170;23;20020;-71
2022/01/28 03:49:13;;;;;;;53.85;20.15;;;3.10;99.90;;;;;;6187101;23;20008;-71
2022/01/28 03:51:40;;;;;;;48.83;19.98;;;3.10;99.90;;;;;;6187017;23;20065;-71
2022/01/28 03:54:06;;;;;;;51.85;20.23;;;3.00;99.90;;;;;;6186901;23;20005;-71
2022/01/28 03:56:33;;;;;;;53.25;20.65;;;3.00;99.90;;;;;;6186940;23;20043;-71
2022/01/28 03:58:59;;;;;;;47.88;19.25;;;3.00;99.90;;;;;;6160689;23;20031;-71
2022/01/28 04:01:32;;;;;;;50.28;20.15;;;2.90;99.90;;;;;;6186921;23;20016;-72
2022/01/28 04:04:56;;;;;;;56.35;21.92;;;2.90;99.90;;;;;;6160722;23;20001;-72
2022/01/28 04:12:17;;;;;;;62.70;24.05;;;2.80;99.90;;;;;;6186785;23;20435;-71
2022/01/28 04:15:05;;;;;;;62.65;24.27;;;2.80;99.90;;;;;;6186855;23;20012;-71
2022/01/28 04:17:32;;;;;;;56.50;22.23;;;2.80;99.90;;;;;;6186806;23;20005;-72
2022/01/28 04:19:59;;;;;;;51.08;20.08;;;2.80;99.90;;;;;;6186830;23;20442;-71
2022/01/28 04:22:26;;;;;;;54.35;20.60;;;2.80;99.90;;;;;;6186880;23;20032;-72
2022/01/28 04:24:53;;;;;;;52.35;21.27;;;2.80;99.90;;;;;;6160491;23;20008;-72
2022/01/28 04:27:19;;;;;;;55.17;21.67;;;2.80;99.90;;;;;;6160889;23;20501;-72
2022/01/28 04:29:46;;;;;;;55.80;20.48;;;2.80;99.90;;;;;;6186561;23;20097;-72
2022/01/28 04:32:13;;;;;;;54.75;20.38;;;2.90;99.90;;;;;;6160495;23;20015;-72
2022/01/28 04:34:39;;;;;;;52.83;22.05;;;2.90;99.90;;;;;;6160614;23;20001;-72
2022/01/28 04:37:15;;;;;;;58.40;20.60;;;2.80;99.90;;;;;;6160314;23;20116;-71
2022/01/28 04:40:02;;;;;;;56.38;21.23;;;2.90;99.90;;;;;;6186522;23;20387;-72
2022/01/28 04:45:07;;;;;;;57.20;22.42;;;2.80;99.90;;;;;;6186633;23;20072;-72
2022/01/28 04:47:44;;;;;;;60.95;20.33;;;2.80;99.90;;;;;;6186613;23;20043;-72
2022/01/28 05:04:05;;;;;;;49.15;21.30;;;2.80;99.90;;;;;;6186849;23;20408;-72
2022/01/28 05:26:01;;;;;;;50.38;20.45;;;2.60;99.90;;;;;;6066491;23;20445;-72
2022/01/28 05:27:56;;;;;;;57.92;20.52;;;2.60;99.90;;;;;;6047501;23;20019;-72
2022/01/28 05:30:22;;;;;;;44.33;19.63;;;2.60;99.90;;;;;;6066397;23;20026;-72
2022/01/28 05:32:49;;;;;;;50.60;20.73;;;2.50;99.90;;;;;;6066354;23;20011;-72
2022/01/28 05:35:15;;;;;;;48.17;21.25;;;2.60;99.90;;;;;;6066341;23;20014;-72
2022/01/28 05:37:42;;;;;;;56.53;20.77;;;2.50;99.90;;;;;;6186154;23;20013;-72
2022/01/28 05:40:09;;;;;;;67.45;22.60;;;2.50;99.90;;;;;;6186497;23;20024;-72
2022/01/28 05:42:36;;;;;;;56.22;20.83;;;2.60;99.90;;;;;;6185672;23;20104;-72
2022/01/28 05:45:03;;;;;;;50.83;21.13;;;2.60;99.90;;;;;;6186016;23;20013;-72
2022/01/28 05:47:35;;;;;;;58.15;22.92;;;2.60;99.90;;;;;;6159825;23;20013;-72
2022/01/28 05:50:04;;;;;;;64.28;21.48;;;2.60;99.90;;;;;;6186269;23;20007;-72
2022/01/28 05:52:31;;;;;;;55.70;22.58;;;2.60;99.90;;;;;;6186169;23;20339;-72
2022/01/28 05:54:59;;;;;;;59.67;21.13;;;2.60;99.90;;;;;;6185936;23;20001;-72
2022/01/28 05:57:26;;;;;;;53.28;20.17;;;2.60;99.90;;;;;;6185812;23;20076;-72
2022/01/28 05:59:52;;;;;;;61.78;23.08;;;2.60;99.90;;;;;;6185748;23;20008;-71
2022/01/28 06:02:19;;;;;;;54.55;21.48;;;2.60;99.90;;;;;;6186241;23;20013;-71
2022/01/28 06:04:46;;;;;;;57.08;22.45;;;2.60;99.90;;;;;;6185954;23;20088;-72
2022/01/28 06:07:13;;;;;;;54.63;21.92;;;2.60;99.90;;;;;;6185669;23;20017;-72
2022/01/28 06:09:39;;;;;;;47.40;19.85;;;2.60;99.90;;;;;;6185730;23;20463;-72
2022/01/28 06:12:06;;;;;;;49.70;19.67;;;2.60;99.90;;;;;;6185731;23;20001;-72
2022/01/28 06:14:33;;;;;;;53.53;20.30;;;2.60;99.90;;;;;;6159476;23;20005;-72
2022/01/28 06:17:00;;;;;;;52.40;20.20;;;2.60;99.90;;;;;;6159266;23;20423;-72
2022/01/28 06:19:27;;;;;;;57.22;21.38;;;2.60;99.90;;;;;;6185496;23;20015;-72
2022/01/28 06:21:53;;;;;;;60.20;21.23;;;2.50;99.90;;;;;;6186162;23;20005;-72
2022/01/28 06:24:20;;;;;;;53.60;21.25;;;2.50;99.90;;;;;;6186230;23;20009;-72
2022/01/28 06:26:47;;;;;;;66.80;21.48;;;2.50;99.90;;;;;;6185862;23;20013;-72
2022/01/28 06:29:14;;;;;;;59.83;24.52;;;2.50;99.90;;;;;;6159276;23;20347;-72
2022/01/28 06:31:42;;;;;;;81.32;30.48;;;2.50;99.90;;;;;;6159655;23;20013;-72
2022/01/28 06:34:09;;;;;;;66.40;25.60;;;2.50;99.90;;;;;;6185986;23;20048;-72
2022/01/28 06:36:36;;;;;;;57.85;22.85;;;2.50;99.90;;;;;;6186298;23;20009;-72
2022/01/28 06:39:04;;;;;;;55.92;20.73;;;2.50;99.90;;;;;;6185847;23;20394;-71
2022/01/28 06:41:31;;;;;;;63.67;23.10;;;2.60;99.90;;;;;;6159821;23;20051;-72
2022/01/28 06:44:00;;;;;;;63.33;23.58;;;2.60;99.90;;;;;;6185901;23;20419;-72
2022/01/28 06:46:27;;;;;;;73.47;27.33;;;2.70;99.90;;;;;;6186108;23;20009;-72
2022/01/28 06:48:54;;;;;;;125.50;40.95;;;2.80;99.90;;;;;;6184446;23;20001;-72
2022/01/28 06:51:20;;;;;;;155.50;49.30;;;2.80;99.90;;;;;;6185920;23;20120;-72
2022/01/28 06:53:47;;;;;;;218.30;75.25;;;2.80;99.90;;;;;;6186136;23;20012;-72
2022/01/28 06:56:14;;;;;;;204.65;72.72;;;2.90;99.90;;;;;;6187819;23;20079;-73
2022/01/28 06:58:40;;;;;;;154.00;51.75;;;2.90;99.90;;;;;;6161921;23;20047;-72
2022/01/28 07:01:09;;;;;;;110.60;41.88;;;3.00;99.90;;;;;;6186149;23;20088;-72
2022/01/28 07:03:36;;;;;;;111.35;37.42;;;3.10;99.90;;;;;;6187746;23;20081;-72
2022/01/28 07:06:02;;;;;;;112.18;38.13;;;3.10;99.90;;;;;;6187732;23;20016;-72
2022/01/28 07:08:29;;;;;;;97.40;34.05;;;3.30;99.90;;;;;;6187686;23;20009;-72
2022/01/28 07:10:56;;;;;;;72.70;28.92;;;3.40;99.90;;;;;;6187714;23;20488;-72
2022/01/28 07:13:22;;;;;;;79.60;29.65;;;3.50;99.90;;;;;;6187649;23;20009;-72
2022/01/28 07:15:51;;;;;;;61.67;25.38;;;3.50;99.90;;;;;;6186393;23;20012;-72
2022/01/28 07:18:18;;;;;;;62.50;24.90;;;3.70;99.90;;;;;;6187684;23;19997;-72
2022/01/28 07:20:45;;;;;;;60.58;23.83;;;3.80;99.90;;;;;;6187901;23;20374;-72
2022/01/28 07:23:11;;;;;;;54.13;22.92;;;3.90;99.90;;;;;;6186624;23;20380;-72
2022/01/28 07:25:38;;;;;;;55.90;21.95;;;4.00;99.90;;;;;;6187477;23;20005;-72
2022/01/28 07:28:04;;;;;;;70.25;23.92;;;4.10;99.90;;;;;;6187657;23;20013;-72
2022/01/28 07:30:31;;;;;;;62.65;25.45;;;4.20;99.90;;;;;;6187328;23;20017;-72
2022/01/28 07:33:00;;;;;;;60.80;24.73;;;4.30;99.90;;;;;;6187817;23;20005;-72
2022/01/28 07:35:27;;;;;;;59.30;23.98;;;4.50;99.90;;;;;;6185852;23;20004;-72
2022/01/28 07:37:54;;;;;;;62.33;23.75;;;4.60;99.90;;;;;;6187390;23;20009;-72
2022/01/28 07:40:21;;;;;;;59.15;22.23;;;4.70;99.90;;;;;;6187319;23;20001;-72
2022/01/28 07:42:47;;;;;;;69.22;23.70;;;4.80;99.90;;;;;;6187343;23;20415;-72
2022/01/28 07:45:15;;;;;;;55.35;22.60;;;4.90;99.90;;;;;;6187749;23;20001;-72
2022/01/28 07:47:43;;;;;;;62.25;22.65;;;5.10;99.90;;;;;;6161221;23;20435;-72
2022/01/28 07:50:12;;;;;;;56.53;23.02;;;5.20;99.90;;;;;;6187774;23;20005;-72
2022/01/28 07:52:40;;;;;;;61.50;21.33;;;5.30;99.90;;;;;;6187378;23;20027;-72
2022/01/28 07:55:13;;;;;;;60.90;22.05;;;5.30;99.90;;;;;;6187679;23;20009;-72
2022/01/28 07:57:41;;;;;;;50.25;19.73;;;5.30;99.90;;;;;;6187255;23;20013;-72
2022/01/28 08:00:10;;;;;;;46.92;19.70;;;5.40;99.90;;;;;;6187245;23;20072;-72
2022/01/28 08:02:42;;;;;;;49.50;19.80;;;5.50;99.90;;;;;;6187085;23;20009;-72
2022/01/28 08:05:10;;;;;;;45.90;18.13;;;5.70;99.90;;;;;;6186933;23;20012;-72
2022/01/28 08:07:37;;;;;;;49.00;19.70;;;5.80;99.90;;;;;;6160831;23;20063;-72
2022/01/28 08:10:07;;;;;;;51.28;20.55;;;6.00;99.90;;;;;;6185744;23;20029;-72
2022/01/28 08:12:44;;;;;;;50.95;19.88;;;6.20;99.90;;;;;;6186876;23;20035;-71
2022/01/28 08:15:11;;;;;;;40.85;17.58;;;6.30;99.90;;;;;;6187045;23;20435;-73
2022/01/28 08:17:37;;;;;;;46.80;17.90;;;6.60;99.90;;;;;;6186737;23;20013;-72
2022/01/28 08:20:05;;;;;;;44.05;18.02;;;6.70;99.90;;;;;;6187022;23;20009;-72
2022/01/28 08:22:32;;;;;;;50.63;17.60;;;6.90;99.90;;;;;;6187025;23;20141;-73
2022/01/28 08:24:58;;;;;;;37.28;16.92;;;7.10;99.90;;;;;;6186924;23;20012;-72
2022/01/28 08:27:24;;;;;;;45.38;17.90;;;7.30;99.90;;;;;;6186878;23;20028;-72
2022/01/28 08:29:51;;;;;;;45.35;16.52;;;7.40;99.90;;;;;;6186728;23;20013;-72
2022/01/28 08:32:18;;;;;;;37.63;13.75;;;7.60;99.90;;;;;;6186851;23;20013;-72
2022/01/28 08:34:44;;;;;;;35.83;14.25;;;7.70;99.90;;;;;;6186987;23;20004;-72
2022/01/28 08:37:11;;;;;;;36.58;15.43;;;7.80;99.90;;;;;;6186907;23;20478;-72
2022/01/28 08:39:39;;;;;;;40.75;14.80;;;8.00;99.90;;;;;;6186860;23;20064;-72
2022/01/28 08:42:07;;;;;;;38.30;16.60;;;8.10;99.90;;;;;;6187150;23;20016;-72
2022/01/28 08:44:33;;;;;;;36.90;15.90;;;8.30;99.90;;;;;;6186720;23;20300;-72
2022/01/28 08:47:00;;;;;;;35.30;15.18;;;8.40;99.90;;;;;;6186808;23;20021;-73
2022/01/28 08:49:27;;;;;;;33.80;14.02;;;8.60;99.90;;;;;;6186862;23;20001;-72
2022/01/28 08:51:53;;;;;;;33.65;13.52;;;8.80;99.90;;;;;;6186843;23;20037;-72
2022/01/28 08:54:20;;;;;;;32.28;14.43;;;9.00;99.90;;;;;;6186654;23;20055;-72
2022/01/28 08:56:46;;;;;;;44.88;15.00;;;9.00;99.90;;;;;;6186725;23;20052;-73
2022/01/28 08:59:13;;;;;;;43.78;16.65;;;9.10;99.90;;;;;;6186678;23;20009;-72
2022/01/28 09:01:39;;;;;;;33.08;11.48;;;9.10;99.90;;;;;;6186783;23;20017;-72
2022/01/28 09:04:06;;;;;;;28.63;9.90;;;9.10;99.90;;;;;;6186900;23;20316;-72
2022/01/28 09:06:32;;;;;;;25.55;10.23;;;9.10;99.90;;;;;;6186554;23;20045;-72
2022/01/28 09:09:01;;;;;;;17.70;7.15;;;9.10;99.90;;;;;;6186772;23;20001;-72
2022/01/28 09:11:47;;;;;;;29.27;8.10;;;9.20;99.90;;;;;;6186995;23;20035;-72
2022/01/28 09:14:15;;;;;;;13.93;6.05;;;9.20;99.90;;;;;;6186767;23;20048;-72
2022/01/28 09:16:43;;;;;;;15.93;6.82;;;9.30;99.90;;;;;;6186077;23;20359;-72
2022/01/28 09:19:10;;;;;;;17.52;6.65;;;9.30;99.90;;;;;;6186612;23;20005;-72
2022/01/28 09:21:37;;;;;;;16.38;7.05;;;9.40;99.90;;;;;;6186498;23;20024;-73
2022/01/28 09:24:05;;;;;;;16.67;6.28;;;9.40;99.90;;;;;;6186815;23;20028;-72
2022/01/28 09:26:32;;;;;;;14.13;6.78;;;9.50;99.90;;;;;;6186292;23;20009;-72
2022/01/28 09:28:59;;;;;;;15.82;7.43;;;9.40;99.90;;;;;;6186602;23;20005;-72
2022/01/28 09:31:25;;;;;;;18.15;6.72;;;9.40;99.90;;;;;;6183383;23;20017;-72
2022/01/28 09:33:51;;;;;;;19.65;7.95;;;9.30;99.90;;;;;;6185820;23;20009;-72
2022/01/28 09:36:19;;;;;;;20.25;7.68;;;9.50;99.90;;;;;;6186226;23;20005;-72
2022/01/28 09:38:45;;;;;;;17.67;6.93;;;9.60;99.90;;;;;;6186181;23;20002;-70
2022/01/28 09:41:11;;;;;;;14.85;6.97;;;9.60;99.90;;;;;;6186266;23;20005;-72
2022/01/28 09:43:37;;;;;;;19.83;7.63;;;9.70;99.90;;;;;;6159691;23;20136;-72
2022/01/28 09:46:04;;;;;;;17.80;7.30;;;9.70;99.90;;;;;;6185896;23;20013;-72
2022/01/28 09:48:31;;;;;;;18.40;7.82;;;9.70;99.90;;;;;;6185954;23;20001;-72
2022/01/28 09:51:02;;;;;;;16.05;6.40;;;9.70;99.90;;;;;;6186029;23;20004;-72
2022/01/28 09:53:29;;;;;;;13.35;5.65;;;9.80;99.90;;;;;;6185980;23;20001;-72
2022/01/28 09:55:57;;;;;;;10.30;4.75;;;9.80;99.90;;;;;;6185780;23;20001;-72
2022/01/28 09:58:24;;;;;;;8.55;4.05;;;9.90;99.90;;;;;;6185677;23;20016;-70
2022/01/28 10:00:50;;;;;;;9.73;3.92;;;9.80;99.90;;;;;;6185565;23;20424;-70
2022/01/28 10:03:18;;;;;;;12.18;3.45;;;9.90;99.90;;;;;;6185446;23;20470;-72
2022/01/28 10:05:50;;;;;;;8.88;3.63;;;10.00;99.90;;;;;;6182799;23;20036;-73
2022/01/28 10:08:27;;;;;;;8.40;4.32;;;10.20;99.90;;;;;;6185107;23;20391;-72
2022/01/28 10:11:14;;;;;;;11.95;5.82;;;10.30;99.90;;;;;;6185278;23;20451;-72
2022/01/28 10:13:57;;;;;;;14.63;6.10;;;10.50;99.90;;;;;;6185335;23;20020;-72
2022/01/28 10:16:29;;;;;;;16.17;5.05;;;10.50;99.90;;;;;;6185146;23;20005;-72
2022/01/28 10:19:00;;;;;;;19.42;5.68;;;10.70;99.90;;;;;;6185242;23;20008;-73
2022/01/28 10:21:38;;;;;;;14.65;6.07;;;10.70;99.90;;;;;;6185286;23;20423;-72
2022/01/28 10:24:12;;;;;;;16.40;5.95;;;10.80;99.90;;;;;;6185419;23;20072;-72
2022/01/28 10:26:41;;;;;;;14.45;6.18;;;10.80;99.90;;;;;;6184969;23;20013;-72
2022/01/28 10:29:31;;;;;;;12.18;5.13;;;10.90;99.90;;;;;;6185226;23;20008;-72
2022/01/28 10:32:03;;;;;;;12.90;5.20;;;10.90;99.90;;;;;;6159544;23;20036;-72
2022/01/28 10:34:33;;;;;;;13.27;5.85;;;10.90;99.90;;;;;;6184776;23;20001;-71
2022/01/28 10:37:28;;;;;;;11.05;4.68;;;10.90;99.90;;;;;;6185003;23;20071;-72
2022/01/28 10:40:03;;;;;;;9.07;3.88;;;11.10;99.90;;;;;;6182065;23;20061;-72
2022/01/28 10:42:39;;;;;;;9.35;4.22;;;11.10;99.90;;;;;;6158843;23;20009;-72
2022/01/28 10:45:12;;;;;;;12.32;5.10;;;11.10;99.90;;;;;;6185060;23;20457;-72
2022/01/28 10:47:43;;;;;;;9.57;4.55;;;11.10;99.90;;;;;;6184968;23;20024;-72
2022/01/28 10:50:25;;;;;;;12.75;4.63;;;11.10;99.90;;;;;;6185413;23;20005;-72
2022/01/28 10:52:58;;;;;;;13.32;5.50;;;11.00;99.90;;;;;;6185211;23;20112;-72
2022/01/28 10:55:24;;;;;;;8.43;4.75;;;11.10;99.90;;;;;;6158871;23;20009;-73
2022/01/28 10:58:02;;;;;;;10.40;5.10;;;11.10;99.90;;;;;;6185123;23;20089;-72
2022/01/28 11:00:35;;;;;;;19.52;5.78;;;11.10;99.90;;;;;;6184940;23;20076;-72
2022/01/28 11:03:03;;;;;;;12.30;5.65;;;11.20;99.90;;;;;;6184707;23;20431;-72
2022/01/28 11:05:31;;;;;;;14.40;6.18;;;11.20;99.90;;;;;;6185097;23;20131;-72
2022/01/28 11:08:00;;;;;;;13.48;5.38;;;11.20;99.90;;;;;;6185138;23;20016;-72
2022/01/28 11:10:26;;;;;;;15.35;5.35;;;11.30;99.90;;;;;;6184995;23;20055;-72
2022/01/28 11:12:53;;;;;;;11.07;4.85;;;11.30;99.90;;;;;;6158642;23;20044;-72
2022/01/28 11:15:21;;;;;;;10.00;4.63;;;11.30;99.90;;;;;;6183645;23;20064;-72
2022/01/28 11:17:49;;;;;;;10.35;4.43;;;11.40;99.90;;;;;;6185343;23;20084;-73
2022/01/28 11:20:21;;;;;;;7.82;4.00;;;11.50;99.90;;;;;;6185090;23;20009;-72
2022/01/28 11:23:11;;;;;;;12.40;4.40;;;11.70;99.90;;;;;;6185098;23;20020;-72
2022/01/28 11:25:47;;;;;;;10.70;3.70;;;11.60;99.90;;;;;;6185206;23;20028;-72
2022/01/28 11:28:14;;;;;;;10.85;4.90;;;11.60;99.90;;;;;;6184485;23;20020;-73
2022/01/28 11:30:49;;;;;;;7.93;3.20;;;11.50;99.90;;;;;;6183937;23;20459;-74
2022/01/28 11:33:16;;;;;;;8.68;3.83;;;11.60;99.90;;;;;;6185198;23;20009;-73
2022/01/28 11:35:52;;;;;;;8.82;3.97;;;11.50;99.90;;;;;;6185181;23;20040;-74
2022/01/28 11:38:24;;;;;;;10.63;3.78;;;11.50;99.90;;;;;;6185184;23;20076;-74
2022/01/28 11:41:06;;;;;;;8.45;3.03;;;11.60;99.90;;;;;;6186517;23;20012;-73
2022/01/28 11:43:34;;;;;;;8.32;3.65;;;11.70;99.90;;;;;;6186958;23;20020;-73
2022/01/28 11:46:08;;;;;;;8.00;3.45;;;11.80;99.90;;;;;;6186882;23;20005;-76
2022/01/28 11:48:56;;;;;;;7.43;3.28;;;11.90;99.90;;;;;;6160365;23;20013;-76
2022/01/28 11:51:33;;;;;;;3.85;2.60;;;12.00;99.90;;;;;;6187223;23;20009;-75
2022/01/28 11:54:03;;;;;;;6.70;2.70;;;12.00;99.90;;;;;;6186933;23;20012;-76
2022/01/28 11:56:30;;;;;;;8.88;2.85;;;12.00;99.90;;;;;;6186844;23;20047;-81
2022/01/28 11:59:03;;;;;;;5.55;2.95;;;12.00;99.90;;;;;;6160445;23;20005;-80
2022/01/28 12:01:38;;;;;;;7.07;3.45;;;12.00;99.90;;;;;;6187084;23;20317;-81
2022/01/28 12:04:34;;;;;;;5.20;3.08;;;12.10;99.90;;;;;;6135782;23;20016;-81
2022/01/28 12:07:18;;;;;;;13.65;4.35;;;12.10;99.90;;;;;;6160445;23;20017;-79
2022/01/28 12:09:47;;;;;;;6.15;2.90;;;12.10;99.90;;;;;;6160053;23;20016;-81
2022/01/28 12:12:39;;;;;;;8.65;3.50;;;12.00;99.90;;;;;;6160279;23;20135;-81
2022/01/28 12:15:13;;;;;;;9.02;3.60;;;12.00;99.90;;;;;;6184458;23;20012;-80
2022/01/28 12:17:46;;;;;;;7.60;3.92;;;12.00;99.90;;;;;;6160422;23;20009;-81
2022/01/28 12:20:15;;;;;;;9.30;3.95;;;12.10;99.90;;;;;;6160200;23;20013;-82
2022/01/28 12:23:00;;;;;;;8.40;4.10;;;12.10;99.90;;;;;;6160290;23;20001;-82
2022/01/28 12:25:36;;;;;;;5.20;3.28;;;12.20;99.90;;;;;;6160343;23;20009;-82
2022/01/28 12:28:19;;;;;;;8.93;4.15;;;12.20;99.90;;;;;;6160291;23;20096;-80
2022/01/28 12:31:00;;;;;;;9.88;3.65;;;12.10;99.90;;;;;;6186443;23;20013;-80
2022/01/28 12:33:34;;;;;;;10.15;3.38;;;12.20;99.90;;;;;;6160755;23;20076;-81
2022/01/28 12:36:08;;;;;;;7.13;2.95;;;12.30;99.90;;;;;;6160287;23;20086;-80
2022/01/28 12:38:55;;;;;;;10.13;3.80;;;12.30;99.90;;;;;;6160059;23;20013;-81
2022/01/28 12:41:23;;;;;;;6.47;3.17;;;12.40;99.90;;;;;;6160048;23;20012;-78
2022/01/28 12:43:50;;;;;;;7.35;2.90;;;12.40;99.90;;;;;;6186576;23;20032;-80
2022/01/28 12:46:17;;;;;;;9.27;3.65;;;12.30;99.90;;;;;;6159997;23;20016;-80
2022/01/28 12:48:54;;;;;;;7.22;3.83;;;12.30;99.90;;;;;;6159790;23;20334;-80
2022/01/28 12:51:24;;;;;;;7.60;3.90;;;12.40;99.90;;;;;;6159839;23;20016;-81
2022/01/28 12:56:43;;;;;;;7.68;3.72;;;12.30;99.90;;;;;;6163595;23;20028;-94
2022/01/28 12:59:40;;;;;;;10.57;4.20;;;12.20;99.90;;;;;;6139604;23;20016;-94
2022/01/28 13:02:08;;;;;;;5.68;3.55;;;12.30;99.90;;;;;;6136893;23;20064;-93
2022/01/28 13:05:12;;;;;;;5.95;3.00;;;12.40;99.90;;;;;;6142947;23;20005;-93
2022/01/28 13:10:48;;;;;;;7.32;3.25;;;12.50;99.90;;;;;;6168190;23;20009;-95
2022/01/28 13:13:31;;;;;;;7.30;3.22;;;12.50;99.90;;;;;;6143164;23;20005;-94
2022/01/28 13:16:07;;;;;;;9.27;3.22;;;12.50;99.90;;;;;;6148674;23;20112;-94
2022/01/28 13:19:32;;;;;;;12.23;4.18;;;12.50;99.90;;;;;;6166242;23;20035;-94
2022/01/28 13:21:59;;;;;;;8.65;3.45;;;12.50;99.90;;;;;;6038051;23;20015;-96
2022/01/28 13:24:28;;;;;;;9.02;3.75;;;12.40;99.90;;;;;;6137899;23;20347;-94
2022/01/28 13:26:57;;;;;;;6.30;3.20;;;12.50;99.90;;;;;;6112683;23;20144;-93
2022/01/28 13:29:44;;;;;;;8.80;4.00;;;12.60;99.90;;;;;;6132448;23;20005;-93
2022/01/28 13:32:15;;;;;;;9.32;3.95;;;12.60;99.90;;;;;;6135653;23;20009;-95
2022/01/28 13:34:54;;;;;;;8.05;4.22;;;12.60;99.90;;;;;;6132177;23;20013;-93
2022/01/28 13:37:39;;;;;;;12.60;4.80;;;12.60;99.90;;;;;;6132135;23;20013;-93
2022/01/28 13:40:10;;;;;;;11.98;4.75;;;12.60;99.90;;;;;;6132273;23;20005;-94
2022/01/28 13:42:54;;;;;;;10.63;4.28;;;12.60;99.90;;;;;;6134275;23;20014;-94
2022/01/28 13:45:40;;;;;;;10.13;4.15;;;12.50;99.90;;;;;;6131701;23;20010;-94
2022/01/28 13:48:33;;;;;;;13.35;5.18;;;12.30;99.90;;;;;;6131676;23;20088;-93
2022/01/28 13:51:16;;;;;;;12.95;4.80;;;12.30;99.90;;;;;;6100404;23;20009;-94
2022/01/28 13:54:29;;;;;;;13.10;5.53;;;12.20;99.90;;;;;;6108126;23;20013;-95
2022/01/28 13:56:48;;;;;;;12.65;5.32;;;12.10;99.90;;;;;;6154871;23;20025;-94
2022/01/28 13:59:23;;;;;;;17.60;7.25;;;12.10;99.90;;;;;;6132649;23;20056;-94
2022/01/28 14:02:00;;;;;;;11.63;5.63;;;12.10;99.90;;;;;;6132708;23;20428;-94
2022/01/28 14:04:39;;;;;;;14.20;5.85;;;12.10;99.90;;;;;;6131996;23;20013;-94
2022/01/28 14:07:14;;;;;;;14.80;5.80;;;12.00;99.90;;;;;;6134031;23;20010;-94
2022/01/28 14:09:44;;;;;;;;;;;12.00;99.90;;;;;;6133163;23;20009;-93
2022/01/28 14:12:56;;;;;;;10.23;5.40;;;11.90;99.90;;;;;;6133629;23;19908;-94
2022/01/28 14:15:43;;;;;;;10.25;4.40;;;11.90;99.90;;;;;;6178446;22;20021;-94
2022/01/28 14:18:18;;;;;;;10.80;4.88;;;11.80;99.90;;;;;;6172958;23;20013;-94